sensor_id;sensor_type;location;lat;lon;timestamp;temperature;humidity
13409;DHT22;6775;49.574;11.170;2022-07-10T00:02:19;16.60;99.90
13409;DHT22;6775;49.574;11.170;2022-07-10T00:04:47;16.50;99.90
13409;DHT22;6775;49.574;11.170;2022-07-10T00:07:15;16.50;99.90
13409;DHT22;6775;49.574;11.170;2022-07-10T00:09:43;16.40;99.90
13409;DHT22;6775;49.574;11.170;2022-07-10T00:12:13;16.40;99.90
13409;DHT22;6775;49.574;11.170;2022-07-10T00:14:41;16.30;99.90
13409;DHT22;6775;49.574;11.170;2022-07-10T00:17:09;16.30;99.90
13409;DHT22;6775;49.574;11.170;2022-07-10T00:19:37;16.30;99.90
13409;DHT22;6775;49.574;11.170;2022-07-10T00:22:05;16.30;99.90
13409;DHT22;6775;49.574;11.170;2022-07-10T00:24:33;16.20;99.90
13409;DHT22;6775;49.574;11.170;2022-07-10T00:27:01;16.20;99.90
13409;DHT22;6775;49.574;11.170;2022-07-10T00:29:30;16.20;99.90
13409;DHT22;6775;49.574;11.170;2022-07-10T00:31:58;16.20;99.90
13409;DHT22;6775;49.574;11.170;2022-07-10T00:34:26;16.10;99.90
13409;DHT22;6775;49.574;11.170;2022-07-10T00:36:54;16.10;99.90
13409;DHT22;6775;49.574;11.170;2022-07-10T00:39:22;16.10;99.90
13409;DHT22;6775;49.574;11.170;2022-07-10T00:41:51;16.10;99.90
13409;DHT22;6775;49.574;11.170;2022-07-10T00:44:20;16.00;99.90
13409;DHT22;6775;49.574;11.170;2022-07-10T00:46:49;16.00;99.90
13409;DHT22;6775;49.574;11.170;2022-07-10T00:49:17;16.00;99.90
13409;DHT22;6775;49.574;11.170;2022-07-10T00:51:45;15.90;99.90
13409;DHT22;6775;49.574;11.170;2022-07-10T00:54:13;15.90;99.90
13409;DHT22;6775;49.574;11.170;2022-07-10T00:56:42;15.80;99.90
13409;DHT22;6775;49.574;11.170;2022-07-10T00:59:10;15.80;99.90
13409;DHT22;6775;49.574;11.170;2022-07-10T01:01:38;15.80;99.90
13409;DHT22;6775;49.574;11.170;2022-07-10T01:04:08;15.70;99.90
13409;DHT22;6775;49.574;11.170;2022-07-10T01:06:36;15.70;99.90
13409;DHT22;6775;49.574;11.170;2022-07-10T01:09:04;15.60;99.90
13409;DHT22;6775;49.574;11.170;2022-07-10T01:11:38;15.60;99.90
13409;DHT22;6775;49.574;11.170;2022-07-10T01:14:06;15.60;99.90
13409;DHT22;6775;49.574;11.170;2022-07-10T01:16:34;15.60;99.90
13409;DHT22;6775;49.574;11.170;2022-07-10T01:19:03;15.60;99.90
13409;DHT22;6775;49.574;11.170;2022-07-10T01:21:35;15.50;99.90
13409;DHT22;6775;49.574;11.170;2022-07-10T01:24:05;15.50;99.90
13409;DHT22;6775;49.574;11.170;2022-07-10T01:30:46;15.50;99.90
13409;DHT22;6775;49.574;11.170;2022-07-10T01:33:14;15.50;99.90
13409;DHT22;6775;49.574;11.170;2022-07-10T01:35:43;15.40;99.90
13409;DHT22;6775;49.574;11.170;2022-07-10T01:38:12;15.40;99.90
13409;DHT22;6775;49.574;11.170;2022-07-10T01:40:40;15.50;99.90
13409;DHT22;6775;49.574;11.170;2022-07-10T01:43:08;15.50;99.90
13409;DHT22;6775;49.574;11.170;2022-07-10T01:45:35;15.50;99.90
13409;DHT22;6775;49.574;11.170;2022-07-10T01:48:04;15.50;99.90
13409;DHT22;6775;49.574;11.170;2022-07-10T01:50:32;15.50;99.90
13409;DHT22;6775;49.574;11.170;2022-07-10T01:53:00;15.50;99.90
13409;DHT22;6775;49.574;11.170;2022-07-10T01:55:29;15.50;99.90
13409;DHT22;6775;49.574;11.170;2022-07-10T01:57:57;15.50;99.90
13409;DHT22;6775;49.574;11.170;2022-07-10T02:00:25;15.50;99.90
13409;DHT22;6775;49.574;11.170;2022-07-10T02:02:53;15.50;99.90
13409;DHT22;6775;49.574;11.170;2022-07-10T02:05:38;15.60;99.90
13409;DHT22;6775;49.574;11.170;2022-07-10T02:08:06;15.50;99.90
13409;DHT22;6775;49.574;11.170;2022-07-10T02:10:35;15.50;99.90
13409;DHT22;6775;49.574;11.170;2022-07-10T02:13:03;15.50;99.90
13409;DHT22;6775;49.574;11.170;2022-07-10T02:15:31;15.50;99.90
13409;DHT22;6775;49.574;11.170;2022-07-10T02:17:59;15.50;99.90
13409;DHT22;6775;49.574;11.170;2022-07-10T02:20:27;15.50;99.90
13409;DHT22;6775;49.574;11.170;2022-07-10T02:22:54;15.50;99.90
13409;DHT22;6775;49.574;11.170;2022-07-10T02:25:22;15.50;99.90
13409;DHT22;6775;49.574;11.170;2022-07-10T02:27:52;15.50;99.90
13409;DHT22;6775;49.574;11.170;2022-07-10T02:30:20;15.50;99.90
13409;DHT22;6775;49.574;11.170;2022-07-10T02:32:47;15.50;99.90
13409;DHT22;6775;49.574;11.170;2022-07-10T02:35:15;15.50;99.90
13409;DHT22;6775;49.574;11.170;2022-07-10T02:37:43;15.50;99.90
13409;DHT22;6775;49.574;11.170;2022-07-10T02:40:11;15.60;99.90
13409;DHT22;6775;49.574;11.170;2022-07-10T02:42:39;15.50;99.90
13409;DHT22;6775;49.574;11.170;2022-07-10T02:45:09;15.50;99.90
13409;DHT22;6775;49.574;11.170;2022-07-10T02:47:37;15.50;99.90
13409;DHT22;6775;49.574;11.170;2022-07-10T02:50:05;15.50;99.90
13409;DHT22;6775;49.574;11.170;2022-07-10T02:52:33;15.40;99.90
13409;DHT22;6775;49.574;11.170;2022-07-10T02:55:01;15.40;99.90
13409;DHT22;6775;49.574;11.170;2022-07-10T02:57:29;15.40;99.90
13409;DHT22;6775;49.574;11.170;2022-07-10T02:59:57;15.40;99.90
13409;DHT22;6775;49.574;11.170;2022-07-10T03:02:26;15.40;99.90
13409;DHT22;6775;49.574;11.170;2022-07-10T03:04:54;15.30;99.90
13409;DHT22;6775;49.574;11.170;2022-07-10T03:07:22;15.30;99.90
13409;DHT22;6775;49.574;11.170;2022-07-10T03:09:49;15.30;99.90
13409;DHT22;6775;49.574;11.170;2022-07-10T03:12:17;15.30;99.90
13409;DHT22;6775;49.574;11.170;2022-07-10T03:14:45;15.20;99.90
13409;DHT22;6775;49.574;11.170;2022-07-10T03:17:13;15.20;99.90
13409;DHT22;6775;49.574;11.170;2022-07-10T03:19:42;15.10;99.90
13409;DHT22;6775;49.574;11.170;2022-07-10T03:22:10;15.10;99.90
13409;DHT22;6775;49.574;11.170;2022-07-10T03:24:38;15.00;99.90
13409;DHT22;6775;49.574;11.170;2022-07-10T03:27:06;15.00;99.90
13409;DHT22;6775;49.574;11.170;2022-07-10T03:29:34;14.90;99.90
13409;DHT22;6775;49.574;11.170;2022-07-10T03:32:02;14.80;99.90
13409;DHT22;6775;49.574;11.170;2022-07-10T03:34:30;14.80;99.90
13409;DHT22;6775;49.574;11.170;2022-07-10T03:37:02;14.80;99.90
13409;DHT22;6775;49.574;11.170;2022-07-10T03:39:29;14.70;99.90
13409;DHT22;6775;49.574;11.170;2022-07-10T03:41:57;14.60;99.90
13409;DHT22;6775;49.574;11.170;2022-07-10T03:44:25;14.60;99.90
13409;DHT22;6775;49.574;11.170;2022-07-10T03:46:53;14.60;99.90
13409;DHT22;6775;49.574;11.170;2022-07-10T03:49:21;14.60;99.90
13409;DHT22;6775;49.574;11.170;2022-07-10T03:51:49;14.60;99.90
13409;DHT22;6775;49.574;11.170;2022-07-10T03:54:18;14.70;99.90
13409;DHT22;6775;49.574;11.170;2022-07-10T03:56:46;14.70;99.90
13409;DHT22;6775;49.574;11.170;2022-07-10T03:59:31;14.70;99.90
13409;DHT22;6775;49.574;11.170;2022-07-10T04:01:59;14.70;99.90
13409;DHT22;6775;49.574;11.170;2022-07-10T04:04:27;14.70;99.90
13409;DHT22;6775;49.574;11.170;2022-07-10T04:06:55;14.70;99.90
13409;DHT22;6775;49.574;11.170;2022-07-10T04:09:24;14.70;99.90
13409;DHT22;6775;49.574;11.170;2022-07-10T04:11:52;14.60;99.90
13409;DHT22;6775;49.574;11.170;2022-07-10T04:14:20;14.60;99.90
13409;DHT22;6775;49.574;11.170;2022-07-10T04:16:48;14.60;99.90
13409;DHT22;6775;49.574;11.170;2022-07-10T04:19:16;14.60;99.90
13409;DHT22;6775;49.574;11.170;2022-07-10T04:21:44;14.60;99.90
13409;DHT22;6775;49.574;11.170;2022-07-10T04:24:12;14.60;99.90
13409;DHT22;6775;49.574;11.170;2022-07-10T04:26:41;14.60;99.90
13409;DHT22;6775;49.574;11.170;2022-07-10T04:29:09;14.60;99.90
13409;DHT22;6775;49.574;11.170;2022-07-10T04:31:37;14.60;99.90
13409;DHT22;6775;49.574;11.170;2022-07-10T04:34:05;14.50;99.90
13409;DHT22;6775;49.574;11.170;2022-07-10T04:36:34;14.50;99.90
13409;DHT22;6775;49.574;11.170;2022-07-10T04:39:02;14.50;99.90
13409;DHT22;6775;49.574;11.170;2022-07-10T04:41:30;14.50;99.90
13409;DHT22;6775;49.574;11.170;2022-07-10T04:43:59;14.50;99.90
13409;DHT22;6775;49.574;11.170;2022-07-10T04:46:27;14.50;99.90
13409;DHT22;6775;49.574;11.170;2022-07-10T04:48:55;14.50;99.90
13409;DHT22;6775;49.574;11.170;2022-07-10T04:51:22;14.40;99.90
13409;DHT22;6775;49.574;11.170;2022-07-10T04:53:50;14.40;99.90
13409;DHT22;6775;49.574;11.170;2022-07-10T04:56:18;14.30;99.90
13409;DHT22;6775;49.574;11.170;2022-07-10T04:58:46;14.40;99.90
13409;DHT22;6775;49.574;11.170;2022-07-10T05:01:20;14.40;99.90
13409;DHT22;6775;49.574;11.170;2022-07-10T05:03:48;14.40;99.90
13409;DHT22;6775;49.574;11.170;2022-07-10T05:06:15;14.40;99.90
13409;DHT22;6775;49.574;11.170;2022-07-10T05:08:43;14.40;99.90
13409;DHT22;6775;49.574;11.170;2022-07-10T05:11:11;14.40;99.90
13409;DHT22;6775;49.574;11.170;2022-07-10T05:13:39;14.50;99.90
13409;DHT22;6775;49.574;11.170;2022-07-10T05:16:10;14.50;99.90
13409;DHT22;6775;49.574;11.170;2022-07-10T05:18:47;14.50;99.90
13409;DHT22;6775;49.574;11.170;2022-07-10T05:21:15;14.40;99.90
13409;DHT22;6775;49.574;11.170;2022-07-10T05:23:43;14.30;99.90
13409;DHT22;6775;49.574;11.170;2022-07-10T05:26:10;14.30;99.90
13409;DHT22;6775;49.574;11.170;2022-07-10T05:28:38;14.30;99.90
13409;DHT22;6775;49.574;11.170;2022-07-10T05:31:07;14.30;99.90
13409;DHT22;6775;49.574;11.170;2022-07-10T05:33:35;14.30;99.90
13409;DHT22;6775;49.574;11.170;2022-07-10T05:36:06;14.30;99.90
13409;DHT22;6775;49.574;11.170;2022-07-10T05:38:34;14.30;99.90
13409;DHT22;6775;49.574;11.170;2022-07-10T05:41:03;14.40;99.90
13409;DHT22;6775;49.574;11.170;2022-07-10T05:43:31;14.30;99.90
13409;DHT22;6775;49.574;11.170;2022-07-10T05:45:58;14.30;99.90
13409;DHT22;6775;49.574;11.170;2022-07-10T05:48:26;14.50;99.90
13409;DHT22;6775;49.574;11.170;2022-07-10T05:50:55;14.40;99.90
13409;DHT22;6775;49.574;11.170;2022-07-10T05:53:42;14.60;99.90
13409;DHT22;6775;49.574;11.170;2022-07-10T05:56:10;14.60;99.90
13409;DHT22;6775;49.574;11.170;2022-07-10T05:58:38;14.70;99.90
13409;DHT22;6775;49.574;11.170;2022-07-10T06:01:07;14.80;99.90
13409;DHT22;6775;49.574;11.170;2022-07-10T06:03:35;14.80;99.90
13409;DHT22;6775;49.574;11.170;2022-07-10T06:06:03;14.90;99.90
13409;DHT22;6775;49.574;11.170;2022-07-10T06:08:31;14.90;99.90
13409;DHT22;6775;49.574;11.170;2022-07-10T06:11:00;14.90;99.90
13409;DHT22;6775;49.574;11.170;2022-07-10T06:13:28;14.90;99.90
13409;DHT22;6775;49.574;11.170;2022-07-10T06:15:56;14.90;99.90
13409;DHT22;6775;49.574;11.170;2022-07-10T06:18:24;14.90;99.90
13409;DHT22;6775;49.574;11.170;2022-07-10T06:20:52;15.00;99.90
13409;DHT22;6775;49.574;11.170;2022-07-10T06:23:26;15.00;99.90
13409;DHT22;6775;49.574;11.170;2022-07-10T06:25:54;15.00;99.90
13409;DHT22;6775;49.574;11.170;2022-07-10T06:28:23;15.10;99.90
13409;DHT22;6775;49.574;11.170;2022-07-10T06:30:51;15.20;99.90
13409;DHT22;6775;49.574;11.170;2022-07-10T06:33:25;15.30;99.90
13409;DHT22;6775;49.574;11.170;2022-07-10T06:35:53;15.40;99.90
13409;DHT22;6775;49.574;11.170;2022-07-10T06:38:22;15.40;99.90
13409;DHT22;6775;49.574;11.170;2022-07-10T06:40:50;15.40;99.90
13409;DHT22;6775;49.574;11.170;2022-07-10T06:43:18;15.50;99.90
13409;DHT22;6775;49.574;11.170;2022-07-10T06:45:48;15.60;99.90
13409;DHT22;6775;49.574;11.170;2022-07-10T06:48:15;15.70;99.90
13409;DHT22;6775;49.574;11.170;2022-07-10T06:50:43;15.70;99.90
13409;DHT22;6775;49.574;11.170;2022-07-10T06:53:11;15.70;99.90
13409;DHT22;6775;49.574;11.170;2022-07-10T06:55:39;15.60;99.90
13409;DHT22;6775;49.574;11.170;2022-07-10T06:58:07;15.60;99.90
13409;DHT22;6775;49.574;11.170;2022-07-10T07:00:35;15.50;99.90
13409;DHT22;6775;49.574;11.170;2022-07-10T07:03:04;15.60;99.90
13409;DHT22;6775;49.574;11.170;2022-07-10T07:05:32;15.60;99.90
13409;DHT22;6775;49.574;11.170;2022-07-10T07:08:00;15.60;99.90
13409;DHT22;6775;49.574;11.170;2022-07-10T07:10:28;15.70;99.90
13409;DHT22;6775;49.574;11.170;2022-07-10T07:12:56;15.70;99.90
13409;DHT22;6775;49.574;11.170;2022-07-10T07:15:24;15.80;99.90
13409;DHT22;6775;49.574;11.170;2022-07-10T07:17:52;15.80;99.90
13409;DHT22;6775;49.574;11.170;2022-07-10T07:20:39;15.80;99.90
13409;DHT22;6775;49.574;11.170;2022-07-10T07:23:24;15.90;99.90
13409;DHT22;6775;49.574;11.170;2022-07-10T07:25:52;15.80;99.90
13409;DHT22;6775;49.574;11.170;2022-07-10T07:28:20;15.80;99.90
13409;DHT22;6775;49.574;11.170;2022-07-10T07:30:49;15.80;99.90
13409;DHT22;6775;49.574;11.170;2022-07-10T07:33:17;15.90;99.90
13409;DHT22;6775;49.574;11.170;2022-07-10T07:35:46;15.90;99.90
13409;DHT22;6775;49.574;11.170;2022-07-10T07:38:14;16.00;99.90
13409;DHT22;6775;49.574;11.170;2022-07-10T07:40:42;16.00;99.90
13409;DHT22;6775;49.574;11.170;2022-07-10T07:43:10;15.90;99.90
13409;DHT22;6775;49.574;11.170;2022-07-10T07:45:38;15.80;99.90
13409;DHT22;6775;49.574;11.170;2022-07-10T07:48:06;15.80;99.90
13409;DHT22;6775;49.574;11.170;2022-07-10T07:50:35;15.90;99.90
13409;DHT22;6775;49.574;11.170;2022-07-10T07:53:05;15.90;99.90
13409;DHT22;6775;49.574;11.170;2022-07-10T07:55:34;15.90;99.90
13409;DHT22;6775;49.574;11.170;2022-07-10T07:58:02;15.80;99.90
13409;DHT22;6775;49.574;11.170;2022-07-10T08:00:31;15.80;99.90
13409;DHT22;6775;49.574;11.170;2022-07-10T08:02:59;15.80;99.90
13409;DHT22;6775;49.574;11.170;2022-07-10T08:05:28;15.80;99.90
13409;DHT22;6775;49.574;11.170;2022-07-10T08:07:57;15.70;99.90
13409;DHT22;6775;49.574;11.170;2022-07-10T08:10:32;15.80;99.90
13409;DHT22;6775;49.574;11.170;2022-07-10T08:13:00;15.80;99.90
13409;DHT22;6775;49.574;11.170;2022-07-10T08:15:29;15.90;99.90
13409;DHT22;6775;49.574;11.170;2022-07-10T08:17:58;16.10;99.90
13409;DHT22;6775;49.574;11.170;2022-07-10T08:20:27;16.30;99.90
13409;DHT22;6775;49.574;11.170;2022-07-10T08:22:55;16.40;99.90
13409;DHT22;6775;49.574;11.170;2022-07-10T08:25:27;16.40;99.90
13409;DHT22;6775;49.574;11.170;2022-07-10T08:28:01;16.40;99.90
13409;DHT22;6775;49.574;11.170;2022-07-10T08:30:30;16.60;99.90
13409;DHT22;6775;49.574;11.170;2022-07-10T08:32:58;16.80;99.90
13409;DHT22;6775;49.574;11.170;2022-07-10T08:35:26;16.90;99.90
13409;DHT22;6775;49.574;11.170;2022-07-10T08:37:53;16.90;99.90
13409;DHT22;6775;49.574;11.170;2022-07-10T08:40:22;16.80;99.90
13409;DHT22;6775;49.574;11.170;2022-07-10T08:42:50;16.70;99.90
13409;DHT22;6775;49.574;11.170;2022-07-10T08:45:20;16.70;99.90
13409;DHT22;6775;49.574;11.170;2022-07-10T08:47:47;16.60;99.90
13409;DHT22;6775;49.574;11.170;2022-07-10T08:50:20;16.60;99.90
13409;DHT22;6775;49.574;11.170;2022-07-10T08:52:53;16.60;99.90
13409;DHT22;6775;49.574;11.170;2022-07-10T08:55:24;16.50;99.90
13409;DHT22;6775;49.574;11.170;2022-07-10T08:57:53;16.40;99.90
13409;DHT22;6775;49.574;11.170;2022-07-10T09:00:24;16.30;99.90
13409;DHT22;6775;49.574;11.170;2022-07-10T09:02:53;16.20;99.90
13409;DHT22;6775;49.574;11.170;2022-07-10T09:05:22;16.20;99.90
13409;DHT22;6775;49.574;11.170;2022-07-10T09:07:50;16.20;99.80
13409;DHT22;6775;49.574;11.170;2022-07-10T09:10:21;16.30;99.70
13409;DHT22;6775;49.574;11.170;2022-07-10T09:12:51;16.40;99.90
13409;DHT22;6775;49.574;11.170;2022-07-10T09:15:21;16.50;99.70
13409;DHT22;6775;49.574;11.170;2022-07-10T09:17:52;16.60;99.90
13409;DHT22;6775;49.574;11.170;2022-07-10T09:20:28;16.80;99.90
13409;DHT22;6775;49.574;11.170;2022-07-10T09:22:58;16.90;99.90
13409;DHT22;6775;49.574;11.170;2022-07-10T09:25:30;16.90;99.50
13409;DHT22;6775;49.574;11.170;2022-07-10T09:28:01;16.70;99.30
13409;DHT22;6775;49.574;11.170;2022-07-10T09:30:36;16.60;99.80
13409;DHT22;6775;49.574;11.170;2022-07-10T09:33:20;16.50;99.90
13409;DHT22;6775;49.574;11.170;2022-07-10T09:35:59;16.50;99.90
13409;DHT22;6775;49.574;11.170;2022-07-10T09:38:54;16.50;99.90
13409;DHT22;6775;49.574;11.170;2022-07-10T09:41:25;16.60;99.90
13409;DHT22;6775;49.574;11.170;2022-07-10T09:43:54;16.80;99.90
13409;DHT22;6775;49.574;11.170;2022-07-10T09:46:25;17.00;99.30
13409;DHT22;6775;49.574;11.170;2022-07-10T09:49:03;17.20;99.30
13409;DHT22;6775;49.574;11.170;2022-07-10T09:51:32;17.30;99.60
13409;DHT22;6775;49.574;11.170;2022-07-10T09:54:02;17.50;98.50
13409;DHT22;6775;49.574;11.170;2022-07-10T09:56:39;17.60;97.90
13409;DHT22;6775;49.574;11.170;2022-07-10T09:59:09;17.60;98.30
13409;DHT22;6775;49.574;11.170;2022-07-10T10:01:43;17.60;98.10
13409;DHT22;6775;49.574;11.170;2022-07-10T10:04:14;17.60;98.00
13409;DHT22;6775;49.574;11.170;2022-07-10T10:06:43;17.70;98.40
13409;DHT22;6775;49.574;11.170;2022-07-10T10:09:18;17.70;98.20
13409;DHT22;6775;49.574;11.170;2022-07-10T10:11:47;17.80;98.30
13409;DHT22;6775;49.574;11.170;2022-07-10T10:14:18;17.80;97.10
13409;DHT22;6775;49.574;11.170;2022-07-10T10:16:47;17.70;97.90
13409;DHT22;6775;49.574;11.170;2022-07-10T10:19:18;17.60;97.50
13409;DHT22;6775;49.574;11.170;2022-07-10T10:22:05;17.50;97.60
13409;DHT22;6775;49.574;11.170;2022-07-10T10:24:42;17.40;98.30
13409;DHT22;6775;49.574;11.170;2022-07-10T10:29:48;17.40;98.50
13409;DHT22;6775;49.574;11.170;2022-07-10T10:36:46;17.40;98.60
13409;DHT22;6775;49.574;11.170;2022-07-10T10:39:16;17.30;98.20
13409;DHT22;6775;49.574;11.170;2022-07-10T10:41:48;17.20;98.40
13409;DHT22;6775;49.574;11.170;2022-07-10T10:44:20;17.20;98.90
13409;DHT22;6775;49.574;11.170;2022-07-10T10:50:54;17.00;98.50
13409;DHT22;6775;49.574;11.170;2022-07-10T10:53:25;16.90;99.10
13409;DHT22;6775;49.574;11.170;2022-07-10T10:56:22;16.90;99.70
13409;DHT22;6775;49.574;11.170;2022-07-10T10:58:50;16.90;99.80
13409;DHT22;6775;49.574;11.170;2022-07-10T11:01:27;16.80;99.50
13409;DHT22;6775;49.574;11.170;2022-07-10T11:04:17;16.80;99.80
13409;DHT22;6775;49.574;11.170;2022-07-10T11:06:48;16.80;99.90
13409;DHT22;6775;49.574;11.170;2022-07-10T11:09:26;16.90;99.90
13409;DHT22;6775;49.574;11.170;2022-07-10T11:12:02;17.00;99.60
13409;DHT22;6775;49.574;11.170;2022-07-10T11:14:32;17.00;99.40
13409;DHT22;6775;49.574;11.170;2022-07-10T11:17:07;17.00;99.80
13409;DHT22;6775;49.574;11.170;2022-07-10T11:19:36;17.10;99.90
13409;DHT22;6775;49.574;11.170;2022-07-10T11:22:43;17.20;99.90
13409;DHT22;6775;49.574;11.170;2022-07-10T11:25:42;17.40;99.90
13409;DHT22;6775;49.574;11.170;2022-07-10T11:28:24;17.50;99.40
13409;DHT22;6775;49.574;11.170;2022-07-10T11:30:54;17.50;99.20
13409;DHT22;6775;49.574;11.170;2022-07-10T11:33:22;17.60;99.10
13409;DHT22;6775;49.574;11.170;2022-07-10T11:35:52;17.60;99.10
13409;DHT22;6775;49.574;11.170;2022-07-10T11:38:21;17.70;98.90
13409;DHT22;6775;49.574;11.170;2022-07-10T11:40:51;17.60;98.50
13409;DHT22;6775;49.574;11.170;2022-07-10T11:43:20;17.50;98.40
13409;DHT22;6775;49.574;11.170;2022-07-10T11:45:51;17.40;98.20
13409;DHT22;6775;49.574;11.170;2022-07-10T11:48:21;17.40;98.00
13409;DHT22;6775;49.574;11.170;2022-07-10T11:50:50;17.30;98.60
13409;DHT22;6775;49.574;11.170;2022-07-10T11:53:22;17.40;98.80
13409;DHT22;6775;49.574;11.170;2022-07-10T11:55:52;17.40;98.30
13409;DHT22;6775;49.574;11.170;2022-07-10T11:58:21;17.40;97.70
13409;DHT22;6775;49.574;11.170;2022-07-10T12:00:59;17.40;97.90
13409;DHT22;6775;49.574;11.170;2022-07-10T12:03:28;17.40;97.50
13409;DHT22;6775;49.574;11.170;2022-07-10T12:06:01;17.40;97.30
13409;DHT22;6775;49.574;11.170;2022-07-10T12:08:30;17.40;97.40
13409;DHT22;6775;49.574;11.170;2022-07-10T12:10:59;17.50;97.30
13409;DHT22;6775;49.574;11.170;2022-07-10T12:13:27;17.60;97.10
13409;DHT22;6775;49.574;11.170;2022-07-10T12:15:55;17.80;97.40
13409;DHT22;6775;49.574;11.170;2022-07-10T12:18:24;18.10;97.90
13409;DHT22;6775;49.574;11.170;2022-07-10T12:20:55;18.30;96.60
13409;DHT22;6775;49.574;11.170;2022-07-10T12:23:23;18.50;96.60
13409;DHT22;6775;49.574;11.170;2022-07-10T12:25:51;18.60;96.30
13409;DHT22;6775;49.574;11.170;2022-07-10T12:28:20;18.70;96.10
13409;DHT22;6775;49.574;11.170;2022-07-10T12:30:49;18.80;96.00
13409;DHT22;6775;49.574;11.170;2022-07-10T12:33:19;18.90;96.10
13409;DHT22;6775;49.574;11.170;2022-07-10T12:35:49;19.00;95.90
13409;DHT22;6775;49.574;11.170;2022-07-10T12:38:18;19.20;96.20
13409;DHT22;6775;49.574;11.170;2022-07-10T12:40:46;19.30;95.40
13409;DHT22;6775;49.574;11.170;2022-07-10T12:43:26;19.20;94.60
13409;DHT22;6775;49.574;11.170;2022-07-10T12:46:14;19.10;94.60
13409;DHT22;6775;49.574;11.170;2022-07-10T12:48:43;19.00;94.90
13409;DHT22;6775;49.574;11.170;2022-07-10T12:51:25;18.90;95.20
13409;DHT22;6775;49.574;11.170;2022-07-10T12:53:53;18.70;94.20
13409;DHT22;6775;49.574;11.170;2022-07-10T12:56:33;18.50;94.70
13409;DHT22;6775;49.574;11.170;2022-07-10T12:59:05;18.50;95.30
13409;DHT22;6775;49.574;11.170;2022-07-10T13:01:40;18.60;95.40
13409;DHT22;6775;49.574;11.170;2022-07-10T13:04:09;18.80;94.70
13409;DHT22;6775;49.574;11.170;2022-07-10T13:06:38;19.00;94.90
13409;DHT22;6775;49.574;11.170;2022-07-10T13:09:20;19.10;94.70
13409;DHT22;6775;49.574;11.170;2022-07-10T13:11:49;19.10;94.80
13409;DHT22;6775;49.574;11.170;2022-07-10T13:18:32;18.80;94.10
13409;DHT22;6775;49.574;11.170;2022-07-10T13:21:00;18.50;94.40
13409;DHT22;6775;49.574;11.170;2022-07-10T13:23:30;18.40;94.90
13409;DHT22;6775;49.574;11.170;2022-07-10T13:25:58;18.40;94.80
13409;DHT22;6775;49.574;11.170;2022-07-10T13:28:27;18.40;95.10
13409;DHT22;6775;49.574;11.170;2022-07-10T13:30:55;18.30;95.00
13409;DHT22;6775;49.574;11.170;2022-07-10T13:33:23;18.40;95.20
13409;DHT22;6775;49.574;11.170;2022-07-10T13:35:52;18.50;96.10
13409;DHT22;6775;49.574;11.170;2022-07-10T13:38:20;18.50;95.60
13409;DHT22;6775;49.574;11.170;2022-07-10T13:40:49;18.50;95.20
13409;DHT22;6775;49.574;11.170;2022-07-10T13:43:17;18.60;95.40
13409;DHT22;6775;49.574;11.170;2022-07-10T13:45:47;18.60;95.10
13409;DHT22;6775;49.574;11.170;2022-07-10T13:48:16;18.70;95.30
13409;DHT22;6775;49.574;11.170;2022-07-10T13:50:45;18.70;95.30
13409;DHT22;6775;49.574;11.170;2022-07-10T13:53:15;18.70;95.10
13409;DHT22;6775;49.574;11.170;2022-07-10T13:55:44;18.70;94.60
13409;DHT22;6775;49.574;11.170;2022-07-10T13:58:13;18.50;94.70
13409;DHT22;6775;49.574;11.170;2022-07-10T14:00:41;18.50;95.00
13409;DHT22;6775;49.574;11.170;2022-07-10T14:03:09;18.40;95.10
13409;DHT22;6775;49.574;11.170;2022-07-10T14:05:37;18.40;95.10
13409;DHT22;6775;49.574;11.170;2022-07-10T14:08:05;18.50;95.50
13409;DHT22;6775;49.574;11.170;2022-07-10T14:10:34;18.70;95.80
13409;DHT22;6775;49.574;11.170;2022-07-10T14:13:02;19.00;95.70
13409;DHT22;6775;49.574;11.170;2022-07-10T14:15:37;19.20;95.40
13409;DHT22;6775;49.574;11.170;2022-07-10T14:18:07;19.20;95.30
13409;DHT22;6775;49.574;11.170;2022-07-10T14:20:35;19.20;94.10
13409;DHT22;6775;49.574;11.170;2022-07-10T14:23:16;19.10;94.60
13409;DHT22;6775;49.574;11.170;2022-07-10T14:25:46;19.10;94.30
13409;DHT22;6775;49.574;11.170;2022-07-10T14:28:14;18.90;94.40
13409;DHT22;6775;49.574;11.170;2022-07-10T14:30:42;18.90;94.80
13409;DHT22;6775;49.574;11.170;2022-07-10T14:33:17;18.80;94.90
13409;DHT22;6775;49.574;11.170;2022-07-10T14:35:45;18.80;94.80
13409;DHT22;6775;49.574;11.170;2022-07-10T14:38:13;18.70;94.40
13409;DHT22;6775;49.574;11.170;2022-07-10T14:40:41;18.70;94.00
13409;DHT22;6775;49.574;11.170;2022-07-10T14:43:10;18.70;94.40
13409;DHT22;6775;49.574;11.170;2022-07-10T14:45:38;18.70;94.50
13409;DHT22;6775;49.574;11.170;2022-07-10T14:48:19;18.80;94.40
13409;DHT22;6775;49.574;11.170;2022-07-10T14:50:47;18.90;94.50
13409;DHT22;6775;49.574;11.170;2022-07-10T14:53:15;19.00;94.60
13409;DHT22;6775;49.574;11.170;2022-07-10T14:55:43;19.10;95.10
13409;DHT22;6775;49.574;11.170;2022-07-10T14:58:12;19.30;95.10
13409;DHT22;6775;49.574;11.170;2022-07-10T15:00:40;19.40;94.70
13409;DHT22;6775;49.574;11.170;2022-07-10T15:03:07;19.50;94.10
13409;DHT22;6775;49.574;11.170;2022-07-10T15:05:35;19.50;94.50
13409;DHT22;6775;49.574;11.170;2022-07-10T15:08:04;19.40;94.40
13409;DHT22;6775;49.574;11.170;2022-07-10T15:10:32;19.40;94.20
13409;DHT22;6775;49.574;11.170;2022-07-10T15:13:00;19.30;94.10
13409;DHT22;6775;49.574;11.170;2022-07-10T15:15:32;19.30;93.90
13409;DHT22;6775;49.574;11.170;2022-07-10T15:29:52;19.30;93.70
13409;DHT22;6775;49.574;11.170;2022-07-10T15:32:22;19.40;93.50
13409;DHT22;6775;49.574;11.170;2022-07-10T15:34:50;19.40;93.40
13409;DHT22;6775;49.574;11.170;2022-07-10T15:37:18;19.30;93.70
13409;DHT22;6775;49.574;11.170;2022-07-10T15:39:45;19.20;94.00
13409;DHT22;6775;49.574;11.170;2022-07-10T15:42:13;19.10;94.20
13409;DHT22;6775;49.574;11.170;2022-07-10T15:44:41;19.20;94.70
13409;DHT22;6775;49.574;11.170;2022-07-10T15:47:09;19.00;94.50
13409;DHT22;6775;49.574;11.170;2022-07-10T15:49:39;19.10;94.80
13409;DHT22;6775;49.574;11.170;2022-07-10T15:52:07;19.00;94.80
13409;DHT22;6775;49.574;11.170;2022-07-10T15:54:35;19.00;95.10
13409;DHT22;6775;49.574;11.170;2022-07-10T15:57:03;19.00;95.30
13409;DHT22;6775;49.574;11.170;2022-07-10T15:59:31;19.00;95.50
13409;DHT22;6775;49.574;11.170;2022-07-10T16:02:01;19.20;94.90
13409;DHT22;6775;49.574;11.170;2022-07-10T16:04:29;19.30;94.70
13409;DHT22;6775;49.574;11.170;2022-07-10T16:06:58;19.50;94.30
13409;DHT22;6775;49.574;11.170;2022-07-10T16:09:26;19.60;93.90
13409;DHT22;6775;49.574;11.170;2022-07-10T16:11:54;19.60;93.40
13409;DHT22;6775;49.574;11.170;2022-07-10T16:14:22;19.60;92.90
13409;DHT22;6775;49.574;11.170;2022-07-10T16:16:50;19.60;92.80
13409;DHT22;6775;49.574;11.170;2022-07-10T16:19:19;19.60;92.80